createdAt,value
2017-10-09T00:00:01.534Z,2.40
2017-10-09T00:02:30.923Z,2.87
2017-10-09T00:05:00.129Z,3.03
2017-10-09T00:07:29.626Z,4.03
2017-10-09T00:09:59.986Z,4.10
2017-10-09T00:12:29.436Z,8.13
2017-10-09T00:14:59.158Z,4.87
2017-10-09T00:17:28.673Z,8.30
2017-10-09T00:19:58.232Z,4.50
2017-10-09T00:22:27.649Z,3.20
2017-10-09T00:24:57.073Z,4.37
2017-10-09T00:27:26.731Z,5.57
2017-10-09T00:30:05.610Z,5.00
2017-10-09T00:32:35.335Z,4.73
2017-10-09T00:35:04.276Z,3.43
2017-10-09T00:37:33.461Z,4.70
2017-10-09T00:40:02.634Z,4.37
2017-10-09T00:42:32.163Z,4.33
2017-10-09T00:45:01.554Z,4.50
2017-10-09T00:47:31.102Z,5.60
2017-10-09T00:50:00.685Z,6.60
2017-10-09T00:52:30.796Z,6.37
2017-10-09T00:55:00.164Z,3.03
2017-10-09T00:57:29.602Z,3.40
2017-10-09T00:59:59.701Z,3.47
2017-10-09T01:02:28.939Z,4.83
2017-10-09T01:04:59.243Z,3.90
2017-10-09T01:07:28.495Z,3.90
2017-10-09T01:09:57.278Z,3.40
2017-10-09T01:12:26.830Z,3.30
2017-10-09T01:14:55.629Z,7.40
2017-10-09T01:17:24.404Z,18.00
2017-10-09T01:19:53.254Z,14.80
2017-10-09T01:22:22.216Z,11.17
2017-10-09T01:24:51.793Z,11.33
2017-10-09T01:27:22.586Z,10.17
2017-10-09T01:29:52.236Z,9.07
2017-10-09T01:32:21.506Z,7.07
2017-10-09T01:34:50.717Z,6.63
2017-10-09T01:37:20.680Z,7.03
2017-10-09T01:39:49.765Z,5.10
2017-10-09T01:42:20.645Z,5.27
2017-10-09T01:44:50.029Z,7.60
2017-10-09T01:47:20.344Z,6.00
2017-10-09T01:49:50.345Z,6.53
2017-10-09T01:52:19.785Z,6.27
2017-10-09T01:54:49.136Z,6.50
2017-10-09T01:57:19.382Z,7.13
2017-10-09T01:59:48.851Z,7.77
2017-10-09T02:02:19.204Z,9.43
2017-10-09T02:04:48.367Z,9.57
2017-10-09T02:07:17.594Z,5.77
2017-10-09T02:09:47.115Z,7.20
2017-10-09T02:12:16.499Z,7.00
2017-10-09T02:14:47.455Z,7.90
2017-10-09T02:17:16.800Z,5.17
2017-10-09T02:19:47.238Z,7.17
2017-10-09T02:22:17.693Z,5.20
2017-10-09T02:24:48.556Z,6.60
2017-10-09T02:27:17.985Z,5.20
2017-10-09T02:29:47.898Z,7.53
2017-10-09T02:32:18.289Z,6.67
2017-10-09T02:34:47.927Z,7.33
2017-10-09T02:37:17.220Z,8.00
2017-10-09T02:39:46.744Z,9.80
2017-10-09T02:42:16.569Z,6.50
2017-10-09T02:44:45.715Z,7.43
2017-10-09T02:47:15.330Z,13.47
2017-10-09T02:49:45.424Z,8.60
2017-10-09T02:52:14.696Z,14.20
2017-10-09T02:54:44.086Z,9.10
2017-10-09T02:57:13.616Z,13.30
2017-10-09T02:59:42.983Z,10.00
2017-10-09T03:02:13.367Z,7.43
2017-10-09T03:04:43.839Z,10.27
2017-10-09T03:07:13.580Z,137.37
2017-10-09T03:09:43.052Z,73.60
2017-10-09T03:12:12.290Z,193.23
2017-10-09T03:14:42.026Z,99.30
2017-10-09T03:17:11.691Z,40.13
2017-10-09T03:19:41.287Z,38.80
2017-10-09T03:22:11.696Z,37.23
2017-10-09T03:24:41.142Z,65.90
2017-10-09T03:27:12.251Z,71.93
2017-10-09T03:29:45.682Z,55.30
2017-10-09T03:32:15.323Z,44.43
2017-10-09T03:34:44.653Z,33.23
2017-10-09T03:37:15.324Z,26.70
2017-10-09T03:39:45.862Z,22.67
2017-10-09T03:42:15.574Z,23.00
2017-10-09T03:44:45.156Z,21.70
2017-10-09T03:47:14.741Z,27.43
2017-10-09T03:49:44.231Z,22.20
2017-10-09T03:52:14.274Z,22.07
2017-10-09T03:54:43.865Z,19.80
2017-10-09T03:57:13.943Z,15.73
2017-10-09T03:59:43.479Z,19.27
2017-10-09T04:02:12.517Z,17.63
2017-10-09T04:04:41.751Z,17.47
2017-10-09T04:07:12.713Z,16.87
2017-10-09T04:09:42.790Z,19.20
2017-10-09T04:12:12.342Z,18.33
2017-10-09T04:14:42.383Z,14.33
2017-10-09T04:17:12.103Z,12.43
2017-10-09T04:19:41.490Z,13.20
2017-10-09T04:22:10.880Z,11.40
2017-10-09T04:24:40.488Z,15.50
2017-10-09T04:27:09.946Z,15.90
2017-10-09T04:29:39.267Z,22.10
2017-10-09T04:32:07.931Z,22.40
2017-10-09T04:34:37.322Z,58.20
2017-10-09T04:37:06.463Z,92.40
2017-10-09T04:39:35.589Z,76.60
2017-10-09T04:42:05.794Z,63.10
2017-10-09T04:44:35.123Z,67.33
2017-10-09T04:47:04.322Z,95.93
2017-10-09T04:49:33.662Z,136.20
2017-10-09T04:52:02.971Z,138.47
2017-10-09T04:54:32.152Z,101.93
2017-10-09T04:57:01.674Z,80.63
2017-10-09T04:59:30.996Z,74.57
2017-10-09T05:02:00.200Z,71.30
2017-10-09T05:04:29.242Z,45.80
2017-10-09T05:06:58.304Z,26.80
2017-10-09T05:09:29.008Z,20.63
2017-10-09T05:11:58.156Z,24.37
2017-10-09T05:14:27.534Z,28.27
2017-10-09T05:16:57.665Z,22.27
2017-10-09T05:19:26.991Z,26.40
2017-10-09T05:21:56.268Z,27.33
2017-10-09T05:24:25.627Z,27.23
2017-10-09T05:26:55.797Z,20.80
2017-10-09T05:29:24.994Z,14.95
2017-10-09T05:31:54.313Z,13.13
2017-10-09T05:34:23.708Z,15.70
2017-10-09T05:36:52.902Z,13.13
2017-10-09T05:39:22.528Z,16.27
2017-10-09T05:41:51.704Z,17.48
2017-10-09T05:44:21.198Z,13.85
2017-10-09T05:46:50.440Z,11.40
2017-10-09T05:49:20.429Z,13.05
2017-10-09T05:51:50.055Z,10.80
2017-10-09T05:54:19.511Z,15.33
2017-10-09T05:56:49.481Z,10.07
2017-10-09T05:59:18.625Z,12.05
2017-10-09T06:01:49.060Z,9.87
2017-10-09T06:04:18.310Z,15.57
2017-10-09T06:06:47.802Z,11.60
2017-10-09T06:09:17.542Z,14.43
2017-10-09T06:11:48.350Z,15.03
2017-10-09T06:14:17.703Z,12.40
2017-10-09T06:16:47.338Z,15.90
2017-10-09T06:19:16.622Z,11.60
2017-10-09T06:21:46.121Z,16.50
2017-10-09T06:24:15.290Z,15.20
2017-10-09T06:26:44.578Z,17.90
2017-10-09T06:29:13.898Z,18.50
2017-10-09T06:31:43.193Z,19.25
2017-10-09T06:34:12.388Z,16.42
2017-10-09T06:36:41.964Z,17.15
2017-10-09T06:39:11.410Z,15.30
2017-10-09T06:41:40.803Z,17.48
2017-10-09T06:44:10.225Z,19.92
2017-10-09T06:46:39.547Z,17.60
2017-10-09T06:49:09.241Z,14.85
2017-10-09T06:51:38.509Z,17.85
2017-10-09T06:54:07.784Z,19.85
2017-10-09T06:56:37.328Z,17.17
2017-10-09T06:59:07.118Z,16.05
2017-10-09T07:01:43.641Z,15.32
2017-10-09T07:04:13.071Z,21.60
2017-10-09T07:06:42.655Z,21.45
2017-10-09T07:09:12.193Z,18.33
2017-10-09T07:11:41.758Z,19.27
2017-10-09T07:14:12.270Z,15.85
2017-10-09T07:16:41.838Z,13.30
2017-10-09T07:19:11.405Z,18.73
2017-10-09T07:21:40.811Z,19.50
2017-10-09T07:24:10.378Z,21.23
2017-10-09T07:26:39.649Z,21.87
2017-10-09T07:29:08.951Z,20.45
2017-10-09T07:31:38.208Z,25.60
2017-10-09T07:34:08.137Z,36.75
2017-10-09T07:36:37.694Z,29.87
2017-10-09T07:39:13.792Z,26.08
2017-10-09T07:41:43.513Z,25.45
2017-10-09T07:44:13.265Z,22.45
2017-10-09T07:46:42.668Z,23.55
2017-10-09T07:49:12.083Z,24.42
2017-10-09T07:51:41.364Z,21.58
2017-10-09T07:54:10.669Z,17.55
2017-10-09T07:56:40.152Z,25.33
2017-10-09T07:59:09.741Z,21.10
2017-10-09T08:01:39.045Z,26.52
2017-10-09T08:04:08.537Z,19.67
2017-10-09T08:06:37.942Z,19.10
2017-10-09T08:09:07.652Z,18.25
2017-10-09T08:11:37.162Z,19.77
2017-10-09T08:14:06.193Z,18.17
2017-10-09T08:16:36.106Z,23.75
2017-10-09T08:19:05.669Z,21.35
2017-10-09T08:21:35.715Z,21.15
2017-10-09T08:24:05.114Z,27.37
2017-10-09T08:26:34.740Z,18.35
2017-10-09T08:29:03.991Z,19.52
2017-10-09T08:31:34.196Z,16.05
2017-10-09T08:34:03.774Z,18.10
2017-10-09T08:36:33.158Z,20.83
2017-10-09T08:39:02.385Z,21.58
2017-10-09T08:41:31.895Z,21.00
2017-10-09T08:44:01.904Z,16.75
2017-10-09T08:46:31.204Z,20.33
2017-10-09T08:49:00.648Z,20.98
2017-10-09T08:51:30.185Z,12.43
2017-10-09T08:53:59.508Z,18.90
2017-10-09T08:56:28.979Z,17.95
2017-10-09T08:58:58.574Z,16.75
2017-10-09T09:01:28.076Z,16.25
2017-10-09T09:03:57.920Z,19.62
2017-10-09T09:06:27.521Z,13.05
2017-10-09T09:08:56.983Z,15.65
2017-10-09T09:11:26.384Z,16.75
2017-10-09T09:13:55.859Z,14.80
2017-10-09T09:16:25.519Z,13.80
2017-10-09T09:18:56.172Z,14.98
2017-10-09T09:21:26.651Z,15.73
2017-10-09T09:23:55.922Z,16.77
2017-10-09T09:26:25.802Z,11.20
2017-10-09T09:28:55.147Z,15.13
2017-10-09T09:31:25.157Z,15.52
2017-10-09T09:33:54.339Z,12.05
2017-10-09T09:36:23.962Z,14.18
2017-10-09T09:38:53.138Z,14.95
2017-10-09T09:41:22.393Z,13.07
2017-10-09T09:43:51.707Z,12.50
2017-10-09T09:46:20.981Z,16.35
2017-10-09T09:48:50.131Z,11.55
2017-10-09T09:51:19.481Z,12.05
2017-10-09T09:53:48.976Z,14.77
2017-10-09T09:56:18.483Z,15.48
2017-10-09T09:58:47.641Z,16.40
2017-10-09T10:01:16.946Z,13.45
2017-10-09T10:03:46.188Z,16.12
2017-10-09T10:06:16.317Z,15.88
2017-10-09T10:08:45.619Z,15.52
2017-10-09T10:11:14.761Z,18.40
2017-10-09T10:13:44.783Z,14.07
2017-10-09T10:16:14.754Z,19.35
2017-10-09T10:18:43.931Z,14.18
2017-10-09T10:21:14.149Z,17.02
2017-10-09T10:23:43.461Z,16.58
2017-10-09T10:26:12.624Z,14.50
2017-10-09T10:28:41.861Z,16.05
2017-10-09T10:31:11.298Z,12.82
2017-10-09T10:33:40.832Z,11.43
2017-10-09T10:36:10.062Z,13.75
2017-10-09T10:38:39.109Z,17.23
2017-10-09T10:41:09.158Z,12.00
2017-10-09T10:43:38.738Z,14.50
2017-10-09T10:46:08.175Z,10.65
2017-10-09T10:48:37.236Z,11.73
2017-10-09T10:51:07.376Z,12.70
2017-10-09T10:53:36.467Z,11.25
2017-10-09T10:56:05.909Z,13.30
2017-10-09T10:58:35.405Z,10.40
2017-10-09T11:01:04.831Z,13.50
2017-10-09T11:03:33.969Z,13.15
2017-10-09T11:06:03.365Z,13.75
2017-10-09T11:08:32.741Z,15.60
2017-10-09T11:11:02.011Z,12.95
2017-10-09T11:13:31.451Z,13.18
2017-10-09T11:16:00.657Z,16.73
2017-10-09T11:18:30.146Z,15.52
2017-10-09T11:20:59.389Z,13.07
2017-10-09T11:23:29.710Z,14.85
2017-10-09T11:25:59.183Z,13.30
2017-10-09T11:28:28.345Z,13.68
2017-10-09T11:30:57.694Z,12.25
2017-10-09T11:33:27.808Z,15.75
2017-10-09T11:35:57.173Z,14.43
2017-10-09T11:38:26.840Z,14.32
2017-10-09T11:40:56.701Z,19.75
2017-10-09T11:43:26.345Z,15.27
2017-10-09T11:45:56.765Z,15.23
2017-10-09T11:48:26.330Z,17.55
2017-10-09T11:50:55.878Z,19.80
2017-10-09T11:53:25.143Z,17.02
2017-10-09T11:55:54.197Z,17.05
2017-10-09T11:58:23.368Z,17.42
2017-10-09T12:00:52.931Z,17.15
2017-10-09T12:03:22.502Z,13.98
2017-10-09T12:05:51.903Z,14.45
2017-10-09T12:08:22.015Z,15.43
2017-10-09T12:10:51.329Z,16.40
2017-10-09T12:13:20.852Z,22.67
2017-10-09T12:15:50.172Z,573.80
2017-10-09T12:18:19.577Z,441.00
2017-10-09T12:20:49.105Z,433.67
2017-10-09T12:23:18.960Z,156.48
2017-10-09T12:25:49.526Z,88.37
2017-10-09T12:28:19.069Z,65.62
2017-10-09T12:30:48.112Z,26.70
2017-10-09T12:33:17.147Z,14.90
2017-10-09T12:35:46.617Z,15.85
2017-10-09T12:38:15.873Z,13.32
2017-10-09T12:40:46.235Z,13.10
2017-10-09T12:43:15.888Z,19.50
2017-10-09T12:45:45.492Z,18.73
2017-10-09T12:48:14.997Z,13.98
2017-10-09T12:50:44.059Z,15.93
2017-10-09T12:53:13.362Z,17.00
2017-10-09T12:55:42.793Z,16.10
2017-10-09T12:58:12.012Z,13.70
2017-10-09T13:00:41.392Z,15.15
2017-10-09T13:03:10.683Z,14.45
2017-10-09T13:05:39.857Z,15.75
2017-10-09T13:08:09.438Z,18.48
2017-10-09T13:10:38.795Z,24.98
2017-10-09T13:13:08.038Z,23.90
2017-10-09T13:15:38.168Z,22.65
2017-10-09T13:18:07.879Z,24.37
2017-10-09T13:20:37.522Z,25.50
2017-10-09T13:23:07.104Z,24.02
2017-10-09T13:25:36.368Z,20.27
2017-10-09T13:28:07.391Z,12.13
2017-10-09T13:30:36.787Z,13.45
2017-10-09T13:33:06.852Z,13.45
2017-10-09T13:35:36.272Z,20.77
2017-10-09T13:38:05.710Z,13.68
2017-10-09T13:40:34.765Z,11.18
2017-10-09T13:43:04.045Z,13.10
2017-10-09T13:45:33.366Z,11.50
2017-10-09T13:48:02.682Z,13.88
2017-10-09T13:50:32.145Z,9.82
2017-10-09T13:53:01.552Z,13.48
2017-10-09T13:55:31.069Z,13.15
2017-10-09T13:58:00.243Z,13.70
2017-10-09T14:00:30.492Z,14.60
2017-10-09T14:02:59.869Z,20.98
2017-10-09T14:05:30.724Z,17.48
2017-10-09T14:08:00.057Z,19.15
2017-10-09T14:10:29.724Z,22.62
2017-10-09T14:12:59.446Z,19.77
2017-10-09T14:15:28.904Z,18.62
2017-10-09T14:17:58.397Z,19.73
2017-10-09T14:20:27.905Z,18.48
2017-10-09T14:22:57.091Z,15.52
2017-10-09T14:25:26.405Z,15.98
2017-10-09T14:27:55.929Z,22.30
2017-10-09T14:30:26.438Z,15.93
2017-10-09T14:40:24.421Z,26.92
2017-10-09T14:42:54.087Z,20.95
2017-10-09T14:45:23.840Z,20.60
2017-10-09T14:47:53.523Z,15.93
2017-10-09T14:50:23.218Z,17.10
2017-10-09T14:52:52.646Z,15.27
2017-10-09T14:55:21.509Z,11.82
2017-10-09T14:57:50.948Z,15.98
2017-10-09T15:00:20.671Z,16.33
2017-10-09T15:02:49.923Z,21.00
2017-10-09T15:05:19.403Z,25.50
2017-10-09T15:07:49.057Z,14.87
2017-10-09T15:10:18.697Z,17.50
2017-10-09T15:12:48.131Z,12.43
2017-10-09T15:15:17.351Z,16.87
2017-10-09T15:17:46.636Z,15.07
2017-10-09T15:20:16.133Z,22.07
2017-10-09T15:22:45.286Z,32.35
2017-10-09T15:25:14.659Z,26.42
2017-10-09T15:27:43.832Z,26.08
2017-10-09T15:30:13.074Z,21.52
2017-10-09T15:32:44.208Z,47.80
2017-10-09T15:35:13.809Z,32.85
2017-10-09T15:37:43.878Z,27.58
2017-10-09T15:40:13.201Z,20.17
2017-10-09T15:42:42.869Z,22.63
2017-10-09T15:45:12.127Z,21.65
2017-10-09T15:47:41.333Z,29.23
2017-10-09T15:50:10.691Z,19.57
2017-10-09T15:52:39.924Z,19.97
2017-10-09T15:55:09.337Z,15.13
2017-10-09T15:57:38.884Z,20.47
2017-10-09T16:00:08.116Z,17.87
2017-10-09T16:02:37.214Z,16.77
2017-10-09T16:05:06.852Z,11.17
2017-10-09T16:07:35.902Z,14.20
2017-10-09T16:10:05.027Z,13.70
2017-10-09T16:12:34.403Z,14.47
2017-10-09T16:15:04.077Z,15.33
2017-10-09T16:17:33.303Z,13.13
2017-10-09T16:20:02.576Z,9.63
2017-10-09T16:22:31.860Z,13.00
2017-10-09T16:25:01.225Z,8.47
2017-10-09T16:27:30.793Z,7.10
2017-10-09T16:30:00.375Z,10.80
2017-10-09T16:32:30.165Z,7.67
2017-10-09T16:35:00.766Z,6.50
2017-10-09T16:37:30.091Z,8.07
2017-10-09T16:39:59.432Z,7.93
2017-10-09T16:42:29.783Z,5.20
2017-10-09T16:44:59.114Z,6.10
2017-10-09T16:47:28.296Z,5.43
2017-10-09T16:49:57.780Z,6.30
2017-10-09T16:52:26.893Z,6.27
2017-10-09T16:54:56.286Z,7.03
2017-10-09T16:57:25.564Z,6.33
2017-10-09T16:59:55.560Z,7.47
2017-10-09T17:02:24.971Z,9.17
2017-10-09T17:04:54.321Z,5.33
2017-10-09T17:07:23.836Z,9.43
2017-10-09T17:09:53.153Z,5.43
2017-10-09T17:12:22.453Z,6.10
2017-10-09T17:14:51.700Z,7.37
2017-10-09T17:17:22.018Z,6.83
2017-10-09T17:19:51.274Z,6.60
2017-10-09T17:22:20.709Z,6.10
2017-10-09T17:24:51.033Z,7.20
2017-10-09T17:27:20.451Z,5.67
2017-10-09T17:29:49.869Z,10.40
2017-10-09T17:32:19.344Z,7.80
2017-10-09T17:34:48.539Z,9.40
2017-10-09T17:37:19.347Z,6.20
2017-10-09T17:39:48.735Z,6.93
2017-10-09T17:42:18.434Z,9.07
2017-10-09T17:44:47.915Z,8.43
2017-10-09T17:47:17.158Z,9.17
2017-10-09T17:49:46.468Z,8.10
2017-10-09T17:52:15.519Z,13.77
2017-10-09T17:54:44.924Z,8.03
2017-10-09T17:57:14.239Z,9.73
2017-10-09T17:59:43.519Z,8.40
2017-10-09T18:02:12.857Z,8.27
2017-10-09T18:04:42.071Z,8.00
2017-10-09T18:07:11.347Z,7.13
2017-10-09T18:09:40.882Z,12.13
2017-10-09T18:12:09.947Z,8.00
2017-10-09T18:14:39.233Z,8.73
2017-10-09T18:17:08.599Z,7.93
2017-10-09T18:19:38.082Z,9.40
2017-10-09T18:22:07.227Z,8.73
2017-10-09T18:24:36.758Z,9.63
2017-10-09T18:27:06.073Z,7.50
2017-10-09T18:29:36.062Z,7.50
2017-10-09T18:32:05.658Z,6.33
2017-10-09T18:34:35.027Z,6.37
2017-10-09T18:37:04.077Z,9.93
2017-10-09T18:39:33.900Z,9.90
2017-10-09T18:42:03.175Z,6.27
2017-10-09T18:44:33.184Z,7.23
2017-10-09T18:47:02.640Z,7.00
2017-10-09T18:49:32.013Z,8.57
2017-10-09T18:52:01.415Z,7.07
2017-10-09T18:54:30.497Z,6.53
2017-10-09T18:56:59.903Z,11.10
2017-10-09T18:59:29.220Z,6.90
2017-10-09T19:01:58.621Z,10.53
2017-10-09T19:04:27.830Z,6.50
2017-10-09T19:06:57.343Z,8.90
2017-10-09T19:09:26.947Z,8.40
2017-10-09T19:11:56.901Z,7.87
2017-10-09T19:14:26.564Z,9.97
2017-10-09T19:16:55.843Z,10.33
2017-10-09T19:19:25.285Z,8.97
2017-10-09T19:21:54.538Z,16.00
2017-10-09T19:24:23.626Z,8.73
2017-10-09T19:26:53.005Z,12.83
2017-10-09T19:29:22.866Z,8.20
2017-10-09T19:31:51.920Z,10.00
2017-10-09T19:34:21.111Z,8.40
2017-10-09T19:36:50.112Z,9.53
2017-10-09T19:39:20.230Z,11.33
2017-10-09T19:41:50.826Z,7.77
2017-10-09T19:44:20.207Z,5.83
2017-10-09T19:46:49.516Z,6.83
2017-10-09T19:49:18.795Z,6.13
2017-10-09T19:51:48.333Z,6.30
2017-10-09T19:54:17.390Z,8.17
2017-10-09T19:56:46.919Z,6.50
2017-10-09T19:59:16.422Z,6.10
2017-10-09T20:01:45.931Z,7.93
2017-10-09T20:04:15.185Z,5.60
2017-10-09T20:06:44.533Z,6.00
2017-10-09T20:09:13.937Z,6.43
2017-10-09T20:11:43.829Z,4.10
2017-10-09T20:14:13.017Z,5.40
2017-10-09T20:16:42.345Z,4.87
2017-10-09T20:19:11.970Z,5.00
2017-10-09T20:21:41.100Z,5.63
2017-10-09T20:24:10.394Z,4.40
2017-10-09T20:26:39.889Z,4.17
2017-10-09T20:29:09.082Z,6.20
2017-10-09T20:31:38.134Z,6.50
2017-10-09T20:34:07.536Z,4.53
2017-10-09T20:36:38.716Z,4.63
2017-10-09T20:39:07.953Z,6.47
2017-10-09T20:41:37.392Z,3.87
2017-10-09T20:44:08.370Z,5.10
2017-10-09T20:46:37.715Z,3.47
2017-10-09T20:49:06.467Z,8.10
2017-10-09T20:51:35.945Z,5.50
2017-10-09T20:54:05.166Z,4.30
2017-10-09T20:56:34.144Z,4.37
2017-10-09T20:59:03.582Z,5.30
2017-10-09T21:01:32.999Z,5.10
2017-10-09T21:04:02.130Z,5.60
2017-10-09T21:06:31.656Z,6.00
2017-10-09T21:09:01.125Z,7.17
2017-10-09T21:11:30.188Z,4.43
2017-10-09T21:14:00.559Z,4.87
2017-10-09T21:16:29.901Z,5.20
2017-10-09T21:18:59.204Z,6.60
2017-10-09T21:21:28.734Z,6.07
2017-10-09T21:23:58.226Z,4.80
2017-10-09T21:26:28.952Z,4.67
2017-10-09T21:28:58.277Z,7.37
2017-10-09T21:31:27.588Z,4.67
2017-10-09T21:33:56.872Z,5.10
2017-10-09T21:36:26.065Z,4.07
2017-10-09T21:38:56.313Z,3.20
2017-10-09T21:41:25.660Z,3.97
2017-10-09T21:43:54.858Z,4.30
2017-10-09T21:46:24.960Z,4.10
2017-10-09T21:48:54.276Z,4.63
2017-10-09T21:51:23.860Z,4.13
2017-10-09T21:53:53.219Z,4.50
2017-10-09T21:56:23.277Z,4.63
2017-10-09T21:58:52.566Z,3.63
2017-10-09T22:01:21.950Z,5.40
2017-10-09T22:03:51.101Z,5.13
2017-10-09T22:06:20.237Z,4.83
2017-10-09T22:08:49.372Z,5.97
2017-10-09T22:11:18.741Z,6.10
2017-10-09T22:13:48.234Z,4.90
2017-10-09T22:16:18.293Z,2.60
2017-10-09T22:18:47.609Z,5.50
2017-10-09T22:21:16.919Z,6.70
2017-10-09T22:23:47.032Z,3.33
2017-10-09T22:26:16.372Z,3.50
2017-10-09T22:28:46.294Z,5.50
2017-10-09T22:31:16.697Z,3.30
2017-10-09T22:33:45.934Z,5.87
2017-10-09T22:36:15.051Z,5.70
2017-10-09T22:38:45.136Z,2.70
2017-10-09T22:41:14.441Z,3.30
2017-10-09T22:43:43.696Z,4.73
2017-10-09T22:46:12.933Z,6.60
2017-10-09T22:48:42.901Z,2.70
2017-10-09T22:51:12.322Z,4.97
2017-10-09T22:53:41.619Z,4.73
2017-10-09T22:56:11.011Z,5.30
2017-10-09T22:58:40.190Z,3.83
2017-10-09T23:01:09.887Z,3.73
2017-10-09T23:03:39.068Z,3.70
2017-10-09T23:06:09.146Z,4.90
2017-10-09T23:08:38.934Z,8.30
2017-10-09T23:11:08.156Z,4.30
2017-10-09T23:13:38.065Z,5.63
2017-10-09T23:16:07.333Z,5.33
2017-10-09T23:18:36.777Z,5.27
2017-10-09T23:21:05.470Z,4.43
2017-10-09T23:23:34.191Z,3.50
2017-10-09T23:26:03.039Z,3.60
2017-10-09T23:28:32.281Z,4.90
2017-10-09T23:31:01.538Z,3.67
2017-10-09T23:33:30.559Z,3.40
2017-10-09T23:35:59.950Z,3.50
2017-10-09T23:38:29.095Z,3.73
2017-10-09T23:40:58.157Z,6.30
2017-10-09T23:43:28.397Z,4.67
2017-10-09T23:45:58.536Z,4.07
2017-10-09T23:48:27.878Z,3.90
2017-10-09T23:50:58.421Z,5.30
2017-10-09T23:53:27.441Z,6.13
2017-10-09T23:55:57.557Z,4.97
2017-10-09T23:58:27.693Z,4.23
